Terminal Aerodrome Forecast
Issued by NWS Melbourne, FL

Home | Current Version | Previous Version | Text Only | Print | Product List | Glossary On
Versions: 1 2 3 4 5 6 7 8 9 10 11 12 13 14 15 16 17 18 19 20 21 22 23 24 25 26 27 28 29 30 31 32
142
FTUS42 KMLB 252018 CCA
TAFMCO
TAF COR
KMCO 252018Z 2520/2618 27009KT P6SM SCT045
     FM260000 29008KT P6SM SKC
     FM260600 34009KT P6SM SKC
     FM261500 02011KT P6SM SKC=

USA.gov is the U.S. government's official web portal to all federal, state and local government web resources and services.